sensor_id;sensor_type;location;lat;lon;timestamp;pressure;altitude;pressure_sealevel;temperature
43802;BMP280;29429;51.074;13.764;2023-04-25T00:02:25;99153.97;;;10.70
43802;BMP280;29429;51.074;13.764;2023-04-25T00:04:53;99152.28;;;10.75
43802;BMP280;29429;51.074;13.764;2023-04-25T00:07:21;99151.47;;;10.75
43802;BMP280;29429;51.074;13.764;2023-04-25T00:09:49;99151.38;;;10.63
43802;BMP280;29429;51.074;13.764;2023-04-25T00:12:16;99152.41;;;10.62
43802;BMP280;29429;51.074;13.764;2023-04-25T00:14:44;99147.84;;;10.69
43802;BMP280;29429;51.074;13.764;2023-04-25T00:17:12;99156.84;;;10.68
43802;BMP280;29429;51.074;13.764;2023-04-25T00:19:40;99145.91;;;10.76
43802;BMP280;29429;51.074;13.764;2023-04-25T00:22:07;99142.38;;;10.82
43802;BMP280;29429;51.074;13.764;2023-04-25T00:24:34;99144.75;;;10.90
43802;BMP280;29429;51.074;13.764;2023-04-25T00:27:02;99148.81;;;10.93
43802;BMP280;29429;51.074;13.764;2023-04-25T00:29:29;99150.81;;;10.97
43802;BMP280;29429;51.074;13.764;2023-04-25T00:31:56;99159.41;;;10.99
43802;BMP280;29429;51.074;13.764;2023-04-25T00:34:24;99153.03;;;11.00
43802;BMP280;29429;51.074;13.764;2023-04-25T00:36:51;99155.72;;;11.00
43802;BMP280;29429;51.074;13.764;2023-04-25T00:39:19;99147.91;;;10.99
43802;BMP280;29429;51.074;13.764;2023-04-25T00:41:46;99147.56;;;10.95
43802;BMP280;29429;51.074;13.764;2023-04-25T00:44:15;99143.69;;;10.91
43802;BMP280;29429;51.074;13.764;2023-04-25T00:46:44;99147.25;;;10.85
43802;BMP280;29429;51.074;13.764;2023-04-25T00:49:11;99144.22;;;10.82
43802;BMP280;29429;51.074;13.764;2023-04-25T00:51:43;99150.22;;;10.77
43802;BMP280;29429;51.074;13.764;2023-04-25T00:54:13;99143.28;;;10.70
43802;BMP280;29429;51.074;13.764;2023-04-25T00:56:40;99141.97;;;10.61
43802;BMP280;29429;51.074;13.764;2023-04-25T00:59:10;99144.31;;;10.51
43802;BMP280;29429;51.074;13.764;2023-04-25T01:01:39;99142.13;;;10.41
43802;BMP280;29429;51.074;13.764;2023-04-25T01:04:09;99134.06;;;10.29
43802;BMP280;29429;51.074;13.764;2023-04-25T01:06:37;99141.25;;;10.22
43802;BMP280;29429;51.074;13.764;2023-04-25T01:09:05;99147.69;;;10.15
43802;BMP280;29429;51.074;13.764;2023-04-25T01:11:33;99142.59;;;10.07
43802;BMP280;29429;51.074;13.764;2023-04-25T01:14:01;99143.09;;;9.97
43802;BMP280;29429;51.074;13.764;2023-04-25T01:16:29;99152.75;;;9.92
43802;BMP280;29429;51.074;13.764;2023-04-25T01:18:57;99153.00;;;9.84
43802;BMP280;29429;51.074;13.764;2023-04-25T01:21:24;99155.50;;;9.78
43802;BMP280;29429;51.074;13.764;2023-04-25T01:23:54;99158.41;;;9.70
43802;BMP280;29429;51.074;13.764;2023-04-25T01:26:23;99157.19;;;9.66
43802;BMP280;29429;51.074;13.764;2023-04-25T01:28:51;99156.41;;;9.59
43802;BMP280;29429;51.074;13.764;2023-04-25T01:31:19;99155.22;;;9.55
43802;BMP280;29429;51.074;13.764;2023-04-25T01:33:46;99149.09;;;9.48
43802;BMP280;29429;51.074;13.764;2023-04-25T01:36:15;99157.50;;;9.45
43802;BMP280;29429;51.074;13.764;2023-04-25T01:38:42;99157.13;;;9.35
43802;BMP280;29429;51.074;13.764;2023-04-25T01:41:11;99146.72;;;9.34
43802;BMP280;29429;51.074;13.764;2023-04-25T01:43:38;99154.31;;;9.30
43802;BMP280;29429;51.074;13.764;2023-04-25T01:46:06;99155.34;;;9.29
43802;BMP280;29429;51.074;13.764;2023-04-25T01:48:33;99151.47;;;9.25
43802;BMP280;29429;51.074;13.764;2023-04-25T01:51:01;99151.69;;;9.24
43802;BMP280;29429;51.074;13.764;2023-04-25T01:53:30;99150.25;;;9.21
43802;BMP280;29429;51.074;13.764;2023-04-25T01:55:57;99150.50;;;9.13
43802;BMP280;29429;51.074;13.764;2023-04-25T01:58:27;99152.31;;;9.12
43802;BMP280;29429;51.074;13.764;2023-04-25T02:01:11;99151.50;;;9.12
43802;BMP280;29429;51.074;13.764;2023-04-25T02:03:44;99151.91;;;9.09
43802;BMP280;29429;51.074;13.764;2023-04-25T02:06:24;99146.41;;;9.04
43802;BMP280;29429;51.074;13.764;2023-04-25T02:08:54;99151.31;;;9.00
43802;BMP280;29429;51.074;13.764;2023-04-25T02:11:21;99153.81;;;8.95
43802;BMP280;29429;51.074;13.764;2023-04-25T02:14:11;99151.78;;;8.91
43802;BMP280;29429;51.074;13.764;2023-04-25T02:16:45;99149.34;;;8.89
43802;BMP280;29429;51.074;13.764;2023-04-25T02:19:13;99162.00;;;8.87
43802;BMP280;29429;51.074;13.764;2023-04-25T02:21:40;99151.78;;;8.84
43802;BMP280;29429;51.074;13.764;2023-04-25T02:24:08;99147.69;;;8.82
43802;BMP280;29429;51.074;13.764;2023-04-25T02:26:36;99147.09;;;8.80
43802;BMP280;29429;51.074;13.764;2023-04-25T02:29:08;99146.91;;;8.75
43802;BMP280;29429;51.074;13.764;2023-04-25T02:31:36;99141.19;;;8.71
43802;BMP280;29429;51.074;13.764;2023-04-25T02:34:03;99147.34;;;8.65
43802;BMP280;29429;51.074;13.764;2023-04-25T02:36:35;99137.94;;;8.63
43802;BMP280;29429;51.074;13.764;2023-04-25T02:39:02;99133.66;;;8.62
43802;BMP280;29429;51.074;13.764;2023-04-25T02:41:30;99138.13;;;8.61
43802;BMP280;29429;51.074;13.764;2023-04-25T02:43:57;99140.41;;;8.57
43802;BMP280;29429;51.074;13.764;2023-04-25T02:46:24;99145.50;;;8.52
43802;BMP280;29429;51.074;13.764;2023-04-25T02:49:05;99145.94;;;8.49
43802;BMP280;29429;51.074;13.764;2023-04-25T02:51:34;99144.50;;;8.47
43802;BMP280;29429;51.074;13.764;2023-04-25T02:54:01;99140.44;;;8.44
43802;BMP280;29429;51.074;13.764;2023-04-25T02:56:29;99138.97;;;8.42
43802;BMP280;29429;51.074;13.764;2023-04-25T02:58:57;99144.72;;;8.39
43802;BMP280;29429;51.074;13.764;2023-04-25T03:01:24;99142.66;;;8.34
43802;BMP280;29429;51.074;13.764;2023-04-25T03:03:52;99151.03;;;8.31
43802;BMP280;29429;51.074;13.764;2023-04-25T03:06:20;99147.34;;;8.26
43802;BMP280;29429;51.074;13.764;2023-04-25T03:08:47;99141.22;;;8.25
43802;BMP280;29429;51.074;13.764;2023-04-25T03:11:15;99140.63;;;8.23
43802;BMP280;29429;51.074;13.764;2023-04-25T03:13:43;99145.28;;;8.21
43802;BMP280;29429;51.074;13.764;2023-04-25T03:16:11;99145.50;;;8.13
43802;BMP280;29429;51.074;13.764;2023-04-25T03:18:38;99142.03;;;8.06
43802;BMP280;29429;51.074;13.764;2023-04-25T03:21:05;99139.59;;;8.05
43802;BMP280;29429;51.074;13.764;2023-04-25T03:23:33;99145.88;;;7.97
43802;BMP280;29429;51.074;13.764;2023-04-25T03:26:00;99140.75;;;7.89
43802;BMP280;29429;51.074;13.764;2023-04-25T03:28:28;99142.00;;;7.93
43802;BMP280;29429;51.074;13.764;2023-04-25T03:30:56;99142.22;;;7.91
43802;BMP280;29429;51.074;13.764;2023-04-25T03:33:24;99148.53;;;7.84
43802;BMP280;29429;51.074;13.764;2023-04-25T03:35:52;99144.25;;;7.83
43802;BMP280;29429;51.074;13.764;2023-04-25T03:38:20;99144.84;;;7.78
43802;BMP280;29429;51.074;13.764;2023-04-25T03:40:47;99149.31;;;7.71
43802;BMP280;29429;51.074;13.764;2023-04-25T03:43:26;99138.50;;;7.66
43802;BMP280;29429;51.074;13.764;2023-04-25T03:45:59;99138.47;;;7.53
43802;BMP280;29429;51.074;13.764;2023-04-25T03:48:27;99140.13;;;7.54
43802;BMP280;29429;51.074;13.764;2023-04-25T03:50:55;99147.66;;;7.57
43802;BMP280;29429;51.074;13.764;2023-04-25T03:53:22;99137.03;;;7.51
43802;BMP280;29429;51.074;13.764;2023-04-25T03:56:08;99143.56;;;7.55
43802;BMP280;29429;51.074;13.764;2023-04-25T03:58:38;99144.19;;;7.57
43802;BMP280;29429;51.074;13.764;2023-04-25T04:01:06;99138.91;;;7.57
43802;BMP280;29429;51.074;13.764;2023-04-25T04:03:37;99143.56;;;7.55
43802;BMP280;29429;51.074;13.764;2023-04-25T04:06:06;99142.56;;;7.56
43802;BMP280;29429;51.074;13.764;2023-04-25T04:08:37;99143.16;;;7.58
43802;BMP280;29429;51.074;13.764;2023-04-25T04:11:04;99144.81;;;7.59
43802;BMP280;29429;51.074;13.764;2023-04-25T04:13:32;99139.94;;;7.62
43802;BMP280;29429;51.074;13.764;2023-04-25T04:16:00;99139.09;;;7.68
43802;BMP280;29429;51.074;13.764;2023-04-25T04:18:35;99136.28;;;7.70
43802;BMP280;29429;51.074;13.764;2023-04-25T04:21:03;99139.97;;;7.75
43802;BMP280;29429;51.074;13.764;2023-04-25T04:23:33;99144.66;;;7.80
43802;BMP280;29429;51.074;13.764;2023-04-25T04:26:01;99152.22;;;7.83
43802;BMP280;29429;51.074;13.764;2023-04-25T04:28:44;99146.09;;;7.82
43802;BMP280;29429;51.074;13.764;2023-04-25T04:31:23;99153.81;;;7.84
43802;BMP280;29429;51.074;13.764;2023-04-25T04:33:51;99155.47;;;7.85
43802;BMP280;29429;51.074;13.764;2023-04-25T04:36:20;99155.88;;;7.82
43802;BMP280;29429;51.074;13.764;2023-04-25T04:38:50;99159.97;;;7.78
43802;BMP280;29429;51.074;13.764;2023-04-25T04:41:29;99157.91;;;7.80
43802;BMP280;29429;51.074;13.764;2023-04-25T04:44:08;99165.28;;;7.84
43802;BMP280;29429;51.074;13.764;2023-04-25T04:46:53;99164.03;;;7.87
43802;BMP280;29429;51.074;13.764;2023-04-25T04:49:39;99168.56;;;7.93
43802;BMP280;29429;51.074;13.764;2023-04-25T04:52:20;99162.44;;;7.99
43802;BMP280;29429;51.074;13.764;2023-04-25T04:55:02;99168.16;;;8.03
43802;BMP280;29429;51.074;13.764;2023-04-25T04:57:51;99174.91;;;8.12
43802;BMP280;29429;51.074;13.764;2023-04-25T05:00:32;99182.25;;;8.16
43802;BMP280;29429;51.074;13.764;2023-04-25T05:03:02;99173.91;;;8.26
43802;BMP280;29429;51.074;13.764;2023-04-25T05:05:40;99169.03;;;8.36
43802;BMP280;29429;51.074;13.764;2023-04-25T05:08:31;99174.75;;;8.46
43802;BMP280;29429;51.074;13.764;2023-04-25T05:11:24;99173.13;;;8.51
43802;BMP280;29429;51.074;13.764;2023-04-25T05:14:12;99178.63;;;8.56
43802;BMP280;29429;51.074;13.764;2023-04-25T05:16:54;99172.50;;;8.63
43802;BMP280;29429;51.074;13.764;2023-04-25T05:19:32;99173.91;;;8.72
43802;BMP280;29429;51.074;13.764;2023-04-25T05:22:23;99167.34;;;8.81
43802;BMP280;29429;51.074;13.764;2023-04-25T05:24:59;99175.94;;;8.89
43802;BMP280;29429;51.074;13.764;2023-04-25T05:27:58;99169.38;;;8.92
43802;BMP280;29429;51.074;13.764;2023-04-25T05:30:58;99164.03;;;8.98
43802;BMP280;29429;51.074;13.764;2023-04-25T05:33:29;99169.34;;;9.05
43802;BMP280;29429;51.074;13.764;2023-04-25T05:35:57;99166.88;;;9.10
43802;BMP280;29429;51.074;13.764;2023-04-25T05:38:25;99167.06;;;9.15
43802;BMP280;29429;51.074;13.764;2023-04-25T05:41:11;99167.47;;;9.12
43802;BMP280;29429;51.074;13.764;2023-04-25T05:43:42;99167.25;;;9.20
43802;BMP280;29429;51.074;13.764;2023-04-25T05:46:31;99164.97;;;9.24
43802;BMP280;29429;51.074;13.764;2023-04-25T05:49:22;99168.44;;;9.24
43802;BMP280;29429;51.074;13.764;2023-04-25T05:52:12;99177.81;;;9.33
43802;BMP280;29429;51.074;13.764;2023-04-25T05:54:45;99173.69;;;9.37
43802;BMP280;29429;51.074;13.764;2023-04-25T05:57:21;99178.59;;;9.40
43802;BMP280;29429;51.074;13.764;2023-04-25T06:00:11;99172.09;;;9.36
43802;BMP280;29429;51.074;13.764;2023-04-25T06:02:43;99173.69;;;9.44
43802;BMP280;29429;51.074;13.764;2023-04-25T06:05:18;99174.88;;;9.54
43802;BMP280;29429;51.074;13.764;2023-04-25T06:07:56;99172.78;;;9.63
43802;BMP280;29429;51.074;13.764;2023-04-25T06:10:24;99176.28;;;9.63
43802;BMP280;29429;51.074;13.764;2023-04-25T06:12:54;99179.72;;;9.70
43802;BMP280;29429;51.074;13.764;2023-04-25T06:15:22;99181.94;;;9.73
43802;BMP280;29429;51.074;13.764;2023-04-25T06:17:55;99178.47;;;9.73
43802;BMP280;29429;51.074;13.764;2023-04-25T06:20:23;99181.06;;;9.79
43802;BMP280;29429;51.074;13.764;2023-04-25T06:22:53;99175.94;;;9.85
43802;BMP280;29429;51.074;13.764;2023-04-25T06:25:27;99177.56;;;9.86
43802;BMP280;29429;51.074;13.764;2023-04-25T06:27:55;99177.53;;;9.92
43802;BMP280;29429;51.074;13.764;2023-04-25T06:30:23;99177.88;;;10.02
43802;BMP280;29429;51.074;13.764;2023-04-25T06:33:00;99164.06;;;10.12
43802;BMP280;29429;51.074;13.764;2023-04-25T06:35:28;99162.41;;;10.17
43802;BMP280;29429;51.074;13.764;2023-04-25T06:37:56;99167.09;;;10.22
43802;BMP280;29429;51.074;13.764;2023-04-25T06:40:24;99162.53;;;10.29
43802;BMP280;29429;51.074;13.764;2023-04-25T06:42:51;99169.84;;;10.40
43802;BMP280;29429;51.074;13.764;2023-04-25T06:45:45;99167.97;;;10.40
43802;BMP280;29429;51.074;13.764;2023-04-25T06:48:14;99167.00;;;10.35
43802;BMP280;29429;51.074;13.764;2023-04-25T06:50:42;99166.13;;;10.41
43802;BMP280;29429;51.074;13.764;2023-04-25T06:53:11;99164.66;;;10.45
43802;BMP280;29429;51.074;13.764;2023-04-25T06:55:40;99171.13;;;10.56
43802;BMP280;29429;51.074;13.764;2023-04-25T06:58:13;99180.28;;;10.66
43802;BMP280;29429;51.074;13.764;2023-04-25T07:00:50;99169.44;;;10.61
43802;BMP280;29429;51.074;13.764;2023-04-25T07:03:19;99182.34;;;10.64
43802;BMP280;29429;51.074;13.764;2023-04-25T07:05:48;99173.38;;;10.59
43802;BMP280;29429;51.074;13.764;2023-04-25T07:08:16;99170.03;;;10.63
43802;BMP280;29429;51.074;13.764;2023-04-25T07:10:43;99174.66;;;10.74
43802;BMP280;29429;51.074;13.764;2023-04-25T07:13:12;99173.94;;;10.85
43802;BMP280;29429;51.074;13.764;2023-04-25T07:15:39;99173.81;;;10.98
43802;BMP280;29429;51.074;13.764;2023-04-25T07:18:07;99173.94;;;11.04
43802;BMP280;29429;51.074;13.764;2023-04-25T07:20:34;99174.91;;;11.09
43802;BMP280;29429;51.074;13.764;2023-04-25T07:23:03;99169.94;;;11.13
43802;BMP280;29429;51.074;13.764;2023-04-25T07:25:30;99172.16;;;11.16
43802;BMP280;29429;51.074;13.764;2023-04-25T07:27:58;99164.44;;;11.26
43802;BMP280;29429;51.074;13.764;2023-04-25T07:30:26;99164.22;;;11.45
43802;BMP280;29429;51.074;13.764;2023-04-25T07:32:54;99168.13;;;11.61
43802;BMP280;29429;51.074;13.764;2023-04-25T07:35:22;99196.69;;;11.60
43802;BMP280;29429;51.074;13.764;2023-04-25T07:37:53;99166.72;;;11.58
43802;BMP280;29429;51.074;13.764;2023-04-25T07:40:23;99160.66;;;11.70
43802;BMP280;29429;51.074;13.764;2023-04-25T07:42:56;99168.97;;;11.91
43802;BMP280;29429;51.074;13.764;2023-04-25T07:45:31;99172.28;;;12.16
43802;BMP280;29429;51.074;13.764;2023-04-25T07:47:59;99167.19;;;12.27
43802;BMP280;29429;51.074;13.764;2023-04-25T07:50:28;99164.97;;;12.23
43802;BMP280;29429;51.074;13.764;2023-04-25T07:52:56;99173.44;;;12.20
43802;BMP280;29429;51.074;13.764;2023-04-25T07:55:30;99159.88;;;12.22
43802;BMP280;29429;51.074;13.764;2023-04-25T07:58:11;99169.53;;;12.58
43802;BMP280;29429;51.074;13.764;2023-04-25T08:00:41;99164.78;;;12.83
43802;BMP280;29429;51.074;13.764;2023-04-25T08:03:28;99166.53;;;13.12
43802;BMP280;29429;51.074;13.764;2023-04-25T08:06:07;99158.91;;;13.32
43802;BMP280;29429;51.074;13.764;2023-04-25T08:09:06;99167.13;;;13.54
43802;BMP280;29429;51.074;13.764;2023-04-25T08:11:39;99173.22;;;13.78
43802;BMP280;29429;51.074;13.764;2023-04-25T08:14:33;99175.41;;;13.81
43802;BMP280;29429;51.074;13.764;2023-04-25T08:17:07;99181.53;;;13.93
43802;BMP280;29429;51.074;13.764;2023-04-25T08:19:41;99182.66;;;14.25
43802;BMP280;29429;51.074;13.764;2023-04-25T08:22:30;99176.16;;;14.21
43802;BMP280;29429;51.074;13.764;2023-04-25T08:25:27;99179.16;;;14.08
43802;BMP280;29429;51.074;13.764;2023-04-25T08:27:56;99185.63;;;14.12
43802;BMP280;29429;51.074;13.764;2023-04-25T08:30:57;99185.25;;;14.20
43802;BMP280;29429;51.074;13.764;2023-04-25T08:33:49;99179.16;;;14.08
43802;BMP280;29429;51.074;13.764;2023-04-25T08:36:39;99185.72;;;14.17
43802;BMP280;29429;51.074;13.764;2023-04-25T08:39:23;99189.66;;;14.26
43802;BMP280;29429;51.074;13.764;2023-04-25T08:42:12;99193.69;;;14.12
43802;BMP280;29429;51.074;13.764;2023-04-25T08:44:40;99199.50;;;13.92
43802;BMP280;29429;51.074;13.764;2023-04-25T08:47:08;99202.31;;;13.86
43802;BMP280;29429;51.074;13.764;2023-04-25T08:49:45;99204.28;;;13.90
43802;BMP280;29429;51.074;13.764;2023-04-25T08:52:14;99211.00;;;13.93
43802;BMP280;29429;51.074;13.764;2023-04-25T08:54:44;99208.31;;;13.76
43802;BMP280;29429;51.074;13.764;2023-04-25T08:57:14;99217.63;;;13.74
43802;BMP280;29429;51.074;13.764;2023-04-25T08:59:42;99214.91;;;13.85
43802;BMP280;29429;51.074;13.764;2023-04-25T09:02:13;99206.94;;;13.90
43802;BMP280;29429;51.074;13.764;2023-04-25T09:04:47;99214.72;;;13.64
43802;BMP280;29429;51.074;13.764;2023-04-25T09:07:15;99227.81;;;13.49
43802;BMP280;29429;51.074;13.764;2023-04-25T09:09:49;99226.78;;;13.50
43802;BMP280;29429;51.074;13.764;2023-04-25T09:12:20;99222.06;;;13.68
43802;BMP280;29429;51.074;13.764;2023-04-25T09:15:10;99229.59;;;13.83
43802;BMP280;29429;51.074;13.764;2023-04-25T09:17:58;99234.09;;;13.94
43802;BMP280;29429;51.074;13.764;2023-04-25T09:20:42;99241.69;;;13.85
43802;BMP280;29429;51.074;13.764;2023-04-25T09:23:20;99244.28;;;13.80
43802;BMP280;29429;51.074;13.764;2023-04-25T09:25:53;99247.00;;;13.69
43802;BMP280;29429;51.074;13.764;2023-04-25T09:28:25;99244.72;;;13.61
43802;BMP280;29429;51.074;13.764;2023-04-25T09:31:00;99236.91;;;13.48
43802;BMP280;29429;51.074;13.764;2023-04-25T09:33:36;99255.13;;;13.34
43802;BMP280;29429;51.074;13.764;2023-04-25T09:36:09;99253.72;;;13.20
43802;BMP280;29429;51.074;13.764;2023-04-25T09:39:00;99253.25;;;13.11
43802;BMP280;29429;51.074;13.764;2023-04-25T09:41:31;99267.41;;;13.00
43802;BMP280;29429;51.074;13.764;2023-04-25T09:44:01;99255.66;;;12.78
43802;BMP280;29429;51.074;13.764;2023-04-25T09:46:42;99265.84;;;12.58
43802;BMP280;29429;51.074;13.764;2023-04-25T09:49:20;99267.97;;;12.26
43802;BMP280;29429;51.074;13.764;2023-04-25T09:52:06;99269.22;;;12.23
43802;BMP280;29429;51.074;13.764;2023-04-25T09:54:40;99273.94;;;12.40
43802;BMP280;29429;51.074;13.764;2023-04-25T09:57:28;99280.97;;;12.64
43802;BMP280;29429;51.074;13.764;2023-04-25T10:00:00;99270.66;;;12.79
43802;BMP280;29429;51.074;13.764;2023-04-25T10:02:46;99284.63;;;12.81
43802;BMP280;29429;51.074;13.764;2023-04-25T10:05:36;99270.22;;;12.94
43802;BMP280;29429;51.074;13.764;2023-04-25T10:08:06;99276.78;;;13.21
43802;BMP280;29429;51.074;13.764;2023-04-25T10:10:34;99275.13;;;13.43
43802;BMP280;29429;51.074;13.764;2023-04-25T10:13:06;99275.16;;;13.83
43802;BMP280;29429;51.074;13.764;2023-04-25T10:15:35;99273.38;;;14.00
43802;BMP280;29429;51.074;13.764;2023-04-25T10:18:09;99280.97;;;14.20
43802;BMP280;29429;51.074;13.764;2023-04-25T10:20:38;99275.78;;;14.13
43802;BMP280;29429;51.074;13.764;2023-04-25T10:23:13;99285.50;;;14.02
43802;BMP280;29429;51.074;13.764;2023-04-25T10:25:43;99287.41;;;14.19
43802;BMP280;29429;51.074;13.764;2023-04-25T10:28:10;99283.41;;;14.33
43802;BMP280;29429;51.074;13.764;2023-04-25T10:31:03;99291.59;;;14.54
43802;BMP280;29429;51.074;13.764;2023-04-25T10:33:43;99286.22;;;14.26
43802;BMP280;29429;51.074;13.764;2023-04-25T10:36:18;99292.81;;;14.07
43802;BMP280;29429;51.074;13.764;2023-04-25T10:38:47;99289.13;;;13.96
43802;BMP280;29429;51.074;13.764;2023-04-25T10:41:18;99290.16;;;13.95
43802;BMP280;29429;51.074;13.764;2023-04-25T10:43:47;99294.03;;;13.88
43802;BMP280;29429;51.074;13.764;2023-04-25T10:46:28;99291.91;;;13.90
43802;BMP280;29429;51.074;13.764;2023-04-25T10:49:01;99286.19;;;13.98
43802;BMP280;29429;51.074;13.764;2023-04-25T10:54:10;99288.09;;;14.14
43802;BMP280;29429;51.074;13.764;2023-04-25T10:56:58;99304.00;;;14.04
43802;BMP280;29429;51.074;13.764;2023-04-25T10:59:31;99295.94;;;13.76
43802;BMP280;29429;51.074;13.764;2023-04-25T11:01:58;99285.00;;;13.42
43802;BMP280;29429;51.074;13.764;2023-04-25T11:04:33;99301.56;;;13.39
43802;BMP280;29429;51.074;13.764;2023-04-25T11:07:16;99304.94;;;13.12
43802;BMP280;29429;51.074;13.764;2023-04-25T11:09:47;99308.97;;;12.91
43802;BMP280;29429;51.074;13.764;2023-04-25T11:12:14;99312.44;;;12.80
43802;BMP280;29429;51.074;13.764;2023-04-25T11:14:41;99313.19;;;12.57
43802;BMP280;29429;51.074;13.764;2023-04-25T11:17:15;99316.53;;;12.53
43802;BMP280;29429;51.074;13.764;2023-04-25T11:19:43;99318.88;;;12.49
43802;BMP280;29429;51.074;13.764;2023-04-25T11:22:13;99341.75;;;12.45
43802;BMP280;29429;51.074;13.764;2023-04-25T11:24:45;99361.13;;;12.11
43802;BMP280;29429;51.074;13.764;2023-04-25T11:27:14;99347.22;;;12.02
43802;BMP280;29429;51.074;13.764;2023-04-25T11:29:41;99354.50;;;12.13
43802;BMP280;29429;51.074;13.764;2023-04-25T11:32:09;99365.31;;;12.37
43802;BMP280;29429;51.074;13.764;2023-04-25T11:34:37;99366.19;;;12.49
43802;BMP280;29429;51.074;13.764;2023-04-25T11:37:13;99363.06;;;12.52
43802;BMP280;29429;51.074;13.764;2023-04-25T11:39:44;99372.22;;;12.44
43802;BMP280;29429;51.074;13.764;2023-04-25T11:42:13;99367.47;;;12.46
43802;BMP280;29429;51.074;13.764;2023-04-25T11:44:41;99359.78;;;12.50
43802;BMP280;29429;51.074;13.764;2023-04-25T11:47:17;99368.75;;;12.55
43802;BMP280;29429;51.074;13.764;2023-04-25T11:49:45;99356.59;;;12.59
43802;BMP280;29429;51.074;13.764;2023-04-25T11:52:12;99365.69;;;12.70
43802;BMP280;29429;51.074;13.764;2023-04-25T11:54:40;99361.44;;;12.92
43802;BMP280;29429;51.074;13.764;2023-04-25T11:57:08;99365.53;;;13.06
43802;BMP280;29429;51.074;13.764;2023-04-25T11:59:35;99363.47;;;13.08
43802;BMP280;29429;51.074;13.764;2023-04-25T12:02:02;99364.00;;;13.28
43802;BMP280;29429;51.074;13.764;2023-04-25T12:04:31;99364.69;;;13.47
43802;BMP280;29429;51.074;13.764;2023-04-25T12:07:03;99359.66;;;13.51
43802;BMP280;29429;51.074;13.764;2023-04-25T12:09:40;99369.94;;;13.54
43802;BMP280;29429;51.074;13.764;2023-04-25T12:12:10;99362.81;;;13.48
43802;BMP280;29429;51.074;13.764;2023-04-25T12:14:37;99360.50;;;13.51
43802;BMP280;29429;51.074;13.764;2023-04-25T12:17:05;99363.06;;;13.46
43802;BMP280;29429;51.074;13.764;2023-04-25T12:19:36;99369.47;;;13.33
43802;BMP280;29429;51.074;13.764;2023-04-25T12:22:23;99361.06;;;13.30
43802;BMP280;29429;51.074;13.764;2023-04-25T12:24:51;99376.31;;;13.18
43802;BMP280;29429;51.074;13.764;2023-04-25T12:27:21;99371.94;;;13.05
43802;BMP280;29429;51.074;13.764;2023-04-25T12:29:54;99363.31;;;13.03
43802;BMP280;29429;51.074;13.764;2023-04-25T12:32:22;99365.88;;;12.98
43802;BMP280;29429;51.074;13.764;2023-04-25T12:34:49;99352.50;;;12.98
43802;BMP280;29429;51.074;13.764;2023-04-25T12:37:16;99357.91;;;13.21
43802;BMP280;29429;51.074;13.764;2023-04-25T12:39:43;99369.56;;;13.38
43802;BMP280;29429;51.074;13.764;2023-04-25T12:42:11;99351.16;;;13.54
43802;BMP280;29429;51.074;13.764;2023-04-25T12:44:39;99363.75;;;13.76
43802;BMP280;29429;51.074;13.764;2023-04-25T12:47:07;99353.72;;;13.95
43802;BMP280;29429;51.074;13.764;2023-04-25T12:49:34;99355.88;;;14.10
43802;BMP280;29429;51.074;13.764;2023-04-25T12:52:01;99353.59;;;14.30
43802;BMP280;29429;51.074;13.764;2023-04-25T12:54:28;99354.16;;;14.43
43802;BMP280;29429;51.074;13.764;2023-04-25T12:56:56;99365.75;;;14.32
43802;BMP280;29429;51.074;13.764;2023-04-25T12:59:24;99361.50;;;14.08
43802;BMP280;29429;51.074;13.764;2023-04-25T13:01:51;99360.00;;;13.89
43802;BMP280;29429;51.074;13.764;2023-04-25T13:04:18;99376.09;;;13.89
43802;BMP280;29429;51.074;13.764;2023-04-25T13:06:48;99380.28;;;13.85
43802;BMP280;29429;51.074;13.764;2023-04-25T13:09:15;99376.47;;;13.58
43802;BMP280;29429;51.074;13.764;2023-04-25T13:11:42;99381.34;;;13.37
43802;BMP280;29429;51.074;13.764;2023-04-25T13:14:09;99393.41;;;13.17
43802;BMP280;29429;51.074;13.764;2023-04-25T13:16:36;99391.34;;;12.89
43802;BMP280;29429;51.074;13.764;2023-04-25T13:19:04;99394.25;;;12.58
43802;BMP280;29429;51.074;13.764;2023-04-25T13:21:32;99403.22;;;12.34
43802;BMP280;29429;51.074;13.764;2023-04-25T13:24:00;99403.88;;;12.11
43802;BMP280;29429;51.074;13.764;2023-04-25T13:26:28;99411.91;;;11.93
43802;BMP280;29429;51.074;13.764;2023-04-25T13:28:56;99422.06;;;11.84
43802;BMP280;29429;51.074;13.764;2023-04-25T13:31:25;99426.50;;;11.72
43802;BMP280;29429;51.074;13.764;2023-04-25T13:33:53;99418.31;;;11.67
43802;BMP280;29429;51.074;13.764;2023-04-25T13:36:21;99427.41;;;11.59
43802;BMP280;29429;51.074;13.764;2023-04-25T13:38:49;99428.28;;;11.53
43802;BMP280;29429;51.074;13.764;2023-04-25T13:41:17;99427.50;;;11.46
43802;BMP280;29429;51.074;13.764;2023-04-25T13:43:46;99418.31;;;11.42
43802;BMP280;29429;51.074;13.764;2023-04-25T13:46:21;99431.25;;;11.39
43802;BMP280;29429;51.074;13.764;2023-04-25T13:49:12;99437.44;;;11.39
43802;BMP280;29429;51.074;13.764;2023-04-25T13:51:40;99431.06;;;11.40
43802;BMP280;29429;51.074;13.764;2023-04-25T13:54:10;99435.81;;;11.38
43802;BMP280;29429;51.074;13.764;2023-04-25T13:57:02;99440.31;;;11.38
43802;BMP280;29429;51.074;13.764;2023-04-25T13:59:29;99449.94;;;11.39
43802;BMP280;29429;51.074;13.764;2023-04-25T14:01:57;99445.25;;;11.41
43802;BMP280;29429;51.074;13.764;2023-04-25T14:04:24;99447.72;;;11.36
43802;BMP280;29429;51.074;13.764;2023-04-25T14:06:52;99444.34;;;11.47
43802;BMP280;29429;51.074;13.764;2023-04-25T14:09:19;99452.88;;;11.62
43802;BMP280;29429;51.074;13.764;2023-04-25T14:11:49;99457.00;;;11.58
43802;BMP280;29429;51.074;13.764;2023-04-25T14:14:17;99447.06;;;11.72
43802;BMP280;29429;51.074;13.764;2023-04-25T14:16:44;99443.88;;;11.99
43802;BMP280;29429;51.074;13.764;2023-04-25T14:19:12;99439.31;;;12.25
43802;BMP280;29429;51.074;13.764;2023-04-25T14:21:39;99436.91;;;12.53
43802;BMP280;29429;51.074;13.764;2023-04-25T14:24:09;99439.41;;;12.66
43802;BMP280;29429;51.074;13.764;2023-04-25T14:26:37;99444.13;;;12.82
43802;BMP280;29429;51.074;13.764;2023-04-25T14:29:06;99442.03;;;13.02
43802;BMP280;29429;51.074;13.764;2023-04-25T14:31:39;99442.59;;;13.34
43802;BMP280;29429;51.074;13.764;2023-04-25T14:34:08;99440.16;;;13.56